To NAV CANADA Home Page Login to a new session Search on AWWS site Disclaimer Vers la page française équivalente Tips FAQ What's new on the site To the Forecasts and Observations / NOTAM section To "File a Flight Plan" website Publications and other links Update of the User's profile FIC Telephone Numbers My Weather Data Folder Route Weather Data Regional Weather Data Local Weather Data To the Forecasts and Observations / NOTAM section
Request Generated 08/19/2022 at 10:20:18 UTC . Weather information available at that time is displayed.

METAR/TAF

GOOSE BAY/NL    

METAR CYYR 191000Z 14003KT 15SM FEW060 BKN080 BKN110 17/11 A2977 RMK SC2AC4AC1 SLP081=
METAR CYYR 190900Z 12004KT 15SM BKN075 BKN110 17/11 A2978 RMK AC6AC1 SLP084=
METAR CYYR 190800Z 10003KT 15SM BKN060 BKN110 17/11 A2979 RMK SC7AC1 SLP090=

TAF CYYR 190540Z 1906/2006 VRB03KT P6SM BKN060 BKN100
FM191000 VRB03KT P6SM -RA FEW010 BKN040 OVC080 TEMPO 1910/1912
5SM -SHRA BR OVC010
FM191200 05005KT 6SM -SHRA BR OVC012
FM192100 VRB03KT P6SM SCT012 OVC100
RMK NXT FCST BY 191200Z
Your time UTC time
Weather data provided by Environment Canada and NAV CANADA